Time;durP1;ratioP1;P1;durP2;ratioP2;P2;SDS_P1;SDS_P2;PMS_P1;PMS_P2;Temp;Humidity;BMP_temperature;BMP_pressure;BME280_temperature;BME280_humidity;BME280_pressure;Samples;Min_cycle;Max_cycle;Signal;HPM_P1;HPM_P2
2024/04/25 00:00:46;;;;;;;;;15.00;13.50;;;;;10.45;47.36;101074.31;2106765;26;2793988;-69
2024/04/25 00:02:00;;;;;;;;;6.67;6.67;;;;;10.40;47.87;101065.69;2134130;26;2743988;-69
2024/04/25 00:03:11;;;;;;;;;9.67;7.67;;;;;10.41;48.77;101058.69;2081822;26;3468970;-69
2024/04/25 00:04:24;;;;;;;;;6.17;5.83;;;;;10.40;48.72;101052.56;2136536;27;2747069;-69
2024/04/25 00:05:38;;;;;;;;;7.33;5.83;;;;;10.48;48.07;101068.13;2134236;26;2736680;-69
2024/04/25 00:06:49;;;;;;;;;10.67;10.67;;;;;10.49;48.70;101072.50;2106991;26;3501312;-69
2024/04/25 00:08:03;;;;;;;;;7.33;7.00;;;;;10.47;48.42;101061.13;2134075;27;2738744;-68
2024/04/25 00:09:17;;;;;;;;;9.17;7.67;;;;;10.50;48.54;101068.06;2133079;27;2766906;-69
2024/04/25 00:10:31;;;;;;;;;10.67;8.17;;;;;10.46;48.19;101062.06;2112175;26;2751255;-69
2024/04/25 00:11:45;;;;;;;;;7.17;4.17;;;;;10.44;49.20;101053.34;2110133;26;2750213;-69
2024/04/25 00:12:58;;;;;;;;;6.00;6.00;;;;;10.47;48.30;101067.25;2109710;27;2746077;-69
2024/04/25 00:14:12;;;;;;;;;10.67;6.50;;;;;10.46;48.55;101055.03;2110741;26;2753808;-68
2024/04/25 00:15:26;;;;;;;;;6.67;6.00;;;;;10.43;48.07;101051.63;2110157;26;2748141;-69
2024/04/25 00:16:40;;;;;;;;;5.67;4.33;;;;;10.43;48.52;101054.25;2135316;26;2746059;-69
2024/04/25 00:17:53;;;;;;;;;4.83;3.67;;;;;10.42;49.06;101047.28;2135502;26;2743947;-69
2024/04/25 00:19:07;;;;;;;;;5.50;4.83;;;;;10.44;48.74;101058.59;2133614;26;2748177;-69
2024/04/25 00:20:18;;;;;;;;;11.00;7.00;;;;;10.41;48.64;101046.41;2084053;27;2765866;-69
2024/04/25 00:21:32;;;;;;;;;8.33;6.67;;;;;10.44;48.70;101053.34;2136239;27;2731443;-69
2024/04/25 00:22:46;;;;;;;;;5.17;4.67;;;;;10.45;48.55;101053.28;2133480;27;2750224;-69
2024/04/25 00:23:57;;;;;;;;;7.00;5.00;;;;;10.43;48.95;101048.97;2083407;27;2748235;-68
2024/04/25 00:25:10;;;;;;;;;8.83;8.83;;;;;10.42;48.41;101031.50;2137768;26;2735650;-68
2024/04/25 00:26:24;;;;;;;;;6.67;5.17;;;;;10.41;49.26;101041.16;2137631;26;2738752;-68
2024/04/25 00:27:35;;;;;;;;;8.67;7.67;;;;;10.39;48.96;101037.72;2108633;26;2730450;-69
2024/04/25 00:28:46;;;;;;;;;11.33;7.00;;;;;10.35;48.48;101026.41;2108839;26;2769104;-69
2024/04/25 00:30:00;;;;;;;;;6.17;6.17;;;;;10.39;48.37;101036.84;2137005;26;2750244;-69
2024/04/25 00:31:11;;;;;;;;;15.00;10.00;;;;;10.39;49.50;101036.84;2108600;26;3525196;-68
2024/04/25 00:32:25;;;;;;;;;8.50;7.83;;;;;10.41;49.09;101035.03;2137523;26;2739804;-69
2024/04/25 00:33:36;;;;;;;;;11.67;9.67;;;;;10.38;49.36;101029.84;2121852;26;1833535;-68
2024/04/25 00:34:50;;;;;;;;;5.67;5.50;;;;;10.42;49.93;101031.50;2113799;26;2750227;-69
2024/04/25 00:36:04;;;;;;;;;8.67;6.67;;;;;10.35;48.54;101018.53;2111587;27;2748206;-69
2024/04/25 00:37:18;;;;;;;;;7.67;7.17;;;;;10.38;48.71;101030.72;2111422;26;2738818;-69
2024/04/25 00:38:31;;;;;;;;;7.00;6.83;;;;;10.39;48.72;101031.59;2135841;26;2721048;-69
2024/04/25 00:39:42;;;;;;;;;7.67;5.67;;;;;10.32;48.68;101013.34;2108540;27;2747434;-68
2024/04/25 00:40:56;;;;;;;;;9.83;7.00;;;;;10.41;48.55;101025.38;2137396;26;2749144;-69
2024/04/25 00:42:18;;;;;;;;;5.00;3.50;;;;;10.41;49.09;101025.38;2137499;26;2747111;-69
2024/04/25 00:43:32;;;;;;;;;9.67;7.50;;;;;10.41;49.64;101024.53;2112190;26;2751235;-68
2024/04/25 00:44:46;;;;;;;;;3.50;3.50;;;;;10.38;49.48;101014.09;2114093;26;2742926;-69
2024/04/25 00:45:58;;;;;;;;;11.00;5.00;;;;;10.37;48.45;101018.47;2108098;26;2773226;-69
2024/04/25 00:47:16;;;;;;;;;5.50;5.33;;;;;10.35;48.75;101015.91;2136200;26;2750228;-68
2024/04/25 00:48:29;;;;;;;;;6.00;5.33;;;;;10.37;49.32;101015.84;2082823;26;2748420;-69
2024/04/25 00:49:43;;;;;;;;;6.33;6.33;;;;;10.37;49.18;101017.63;2137828;27;2737735;-69
2024/04/25 00:50:56;;;;;;;;;9.33;6.00;;;;;10.35;49.53;101015.91;2107892;27;2751375;-69
2024/04/25 00:52:12;;;;;;;;;6.33;5.83;;;;;10.34;49.66;101016.81;2137326;27;2730724;-69
2024/04/25 00:53:27;;;;;;;;;5.17;4.83;;;;;10.35;48.80;101015.91;2137276;27;2745025;-69
2024/04/25 00:54:41;;;;;;;;;7.00;6.50;;;;;10.37;49.71;101017.63;2113151;27;2737721;-69
2024/04/25 00:55:56;;;;;;;;;9.33;7.33;;;;;10.35;49.03;101010.66;2110173;27;2756466;-69
2024/04/25 00:57:14;;;;;;;;;7.83;4.17;;;;;10.37;49.74;101007.97;2137955;26;2741876;-68
2024/04/25 00:58:30;;;;;;;;;7.17;6.50;;;;;10.34;49.59;101003.69;2108915;26;2747104;-69
2024/04/25 00:59:50;;;;;;;;;5.00;5.00;;;;;10.27;49.56;100988.13;2136434;26;2748130;-69
2024/04/25 01:01:04;;;;;;;;;6.67;5.33;;;;;10.34;49.07;101000.19;2138119;26;2746050;-68
2024/04/25 01:02:16;;;;;;;;;11.00;7.00;;;;;10.35;49.30;101000.13;2083720;26;2770179;-68
2024/04/25 01:03:33;;;;;;;;;7.00;5.83;;;;;10.35;49.64;101000.13;2135794;26;2750244;-69
2024/04/25 01:04:49;;;;;;;;;8.00;6.00;;;;;10.33;50.10;100996.69;2136749;26;2750249;-69
2024/04/25 01:06:07;;;;;;;;;7.00;4.83;;;;;10.35;49.29;100999.25;2109974;26;2747149;-68
2024/04/25 01:07:21;;;;;;;;;6.33;4.00;;;;;10.31;49.97;100993.25;2112786;26;2748187;-69
2024/04/25 01:08:34;;;;;;;;;7.33;4.50;;;;;10.31;50.22;100995.88;2136387;26;2745073;-69
2024/04/25 01:09:48;;;;;;;;;4.67;4.67;;;;;10.31;50.00;100993.25;2113015;26;2743007;-69
2024/04/25 01:11:03;;;;;;;;;7.17;5.17;;;;;10.30;49.72;100994.13;2112888;26;2748118;-69
2024/04/25 01:12:17;;;;;;;;;5.83;5.83;;;;;10.29;49.54;100989.81;2135772;26;2749630;-69
2024/04/25 01:13:31;;;;;;;;;6.50;4.00;;;;;10.27;49.76;100989.00;2113472;26;2738140;-69
2024/04/25 01:14:45;;;;;;;;;3.83;3.83;;;;;10.27;50.09;100990.75;2113345;27;2750217;-68
2024/04/25 01:16:00;;;;;;;;;5.50;5.50;;;;;10.24;49.67;100984.69;2110411;26;2750237;-69
2024/04/25 01:17:14;;;;;;;;;7.17;6.50;;;;;10.22;49.89;100983.84;2136509;27;2748114;-69
2024/04/25 01:18:29;;;;;;;;;4.00;4.00;;;;;10.23;49.87;100979.44;2103422;26;2752312;-69
2024/04/25 01:19:44;;;;;;;;;7.83;5.00;;;;;10.19;50.19;100986.56;2110266;26;2756470;-69
2024/04/25 01:20:58;;;;;;;;;7.00;7.00;;;;;10.22;50.72;100985.63;2112878;26;2750308;-69
2024/04/25 01:22:12;;;;;;;;;7.33;5.00;;;;;10.20;50.67;100984.78;2136505;26;2748147;-69
2024/04/25 01:23:34;;;;;;;;;4.83;4.17;;;;;10.15;49.88;100986.69;2111688;26;2737737;-69
2024/04/25 01:24:49;;;;;;;;;10.00;5.67;;;;;10.13;50.26;100982.34;2111812;26;2755454;-69
2024/04/25 01:26:04;;;;;;;;;6.33;4.83;;;;;10.15;50.70;100984.06;2112996;26;2746101;-69
2024/04/25 01:27:18;;;;;;;;;3.83;3.83;;;;;10.13;51.13;100989.34;2113553;26;2742938;-68
2024/04/25 01:28:33;;;;;;;;;5.00;5.00;;;;;10.10;50.19;100978.94;2111764;26;2742910;-69
2024/04/25 01:29:48;;;;;;;;;5.83;5.50;;;;;10.09;50.48;100977.22;2111229;26;2748138;-68
2024/04/25 01:31:04;;;;;;;;;4.33;4.33;;;;;10.06;50.83;100978.16;2111194;26;2750232;-69
2024/04/25 01:32:18;;;;;;;;;6.67;5.50;;;;;10.05;50.26;100971.16;2111548;26;2747168;-68
2024/04/25 01:33:29;;;;;;;;;5.33;5.00;;;;;10.04;50.19;100964.22;2082170;26;3469976;-68
2024/04/25 01:34:43;;;;;;;;;6.83;6.17;;;;;10.05;50.89;100971.16;2135652;26;2753386;-69
2024/04/25 01:35:57;;;;;;;;;6.67;6.67;;;;;10.03;51.16;100959.84;2134643;26;2750205;-68
2024/04/25 01:37:11;;;;;;;;;7.00;6.00;;;;;10.01;51.03;100964.28;2111346;26;2745029;-69
2024/04/25 01:38:22;;;;;;;;;7.00;5.33;;;;;10.02;50.65;100961.59;2107756;26;2752313;-69
2024/04/25 01:39:36;;;;;;;;;7.67;6.17;;;;;9.98;50.69;100967.84;2137209;26;2751239;-69
2024/04/25 01:40:50;;;;;;;;;4.67;2.83;;;;;10.01;51.39;100964.28;2135430;26;2746056;-69
2024/04/25 01:42:04;;;;;;;;;4.67;3.83;;;;;9.98;51.23;100964.34;2137364;27;2754368;-69
2024/04/25 01:43:17;;;;;;;;;10.00;5.83;;;;;9.97;51.01;100963.53;2110396;26;2762764;-68
2024/04/25 01:44:31;;;;;;;;;4.50;3.00;;;;;9.94;50.82;100949.59;2112770;26;2744275;-68
2024/04/25 01:45:45;;;;;;;;;6.00;5.83;;;;;9.96;50.52;100961.78;2137418;26;2750193;-69
2024/04/25 01:46:59;;;;;;;;;7.17;4.83;;;;;9.94;50.57;100957.47;2110963;26;2752339;-69
2024/04/25 01:48:12;;;;;;;;;6.33;6.00;;;;;9.93;50.77;100961.00;2110981;27;2748201;-69
2024/04/25 01:49:26;;;;;;;;;4.50;4.33;;;;;9.94;51.13;100957.47;2113151;26;2746034;-68
2024/04/25 01:50:40;;;;;;;;;3.67;3.50;;;;;9.93;50.59;100950.50;2112278;26;2754412;-68
2024/04/25 01:51:54;;;;;;;;;4.83;4.00;;;;;9.89;50.87;100954.97;2112762;26;2754399;-68
2024/04/25 01:53:08;;;;;;;;;4.17;4.00;;;;;9.88;50.67;100954.09;2113343;27;2736680;-69
2024/04/25 01:54:22;;;;;;;;;5.83;3.83;;;;;9.86;51.21;100955.91;2138020;27;2748130;-69
2024/04/25 01:55:36;;;;;;;;;4.33;4.33;;;;;9.86;51.53;100955.91;2137658;26;2745012;-69
2024/04/25 01:56:50;;;;;;;;;5.33;5.17;;;;;9.84;50.90;100955.09;2136797;26;2748593;-69
2024/04/25 01:58:04;;;;;;;;;5.67;5.67;;;;;9.76;51.58;100947.41;2111987;26;2746051;-69
2024/04/25 01:59:18;;;;;;;;;9.50;6.17;;;;;9.79;51.38;100949.09;2137010;26;2751247;-69
2024/04/25 02:00:32;;;;;;;;;4.83;3.17;;;;;9.81;51.37;100952.56;2111353;26;2754467;-69
2024/04/25 02:01:46;;;;;;;;;4.67;4.67;;;;;9.77;51.72;100949.16;2137825;26;2748118;-68
2024/04/25 02:02:59;;;;;;;;;7.50;5.83;;;;;9.76;51.52;100943.94;2111531;26;2744031;-69
2024/04/25 02:04:10;;;;;;;;;6.00;3.33;;;;;9.78;51.83;100942.13;2084138;26;2756469;-69
2024/04/25 02:05:24;;;;;;;;;5.50;5.50;;;;;9.76;50.73;100944.78;2137037;26;2732518;-69
2024/04/25 02:06:38;;;;;;;;;7.00;6.50;;;;;9.74;51.17;100940.50;2135817;26;2752289;-68
2024/04/25 02:07:52;;;;;;;;;4.67;3.33;;;;;9.76;51.18;100941.31;2111381;26;2741895;-69
2024/04/25 02:09:05;;;;;;;;;5.50;4.33;;;;;9.73;51.27;100938.78;2137713;26;2741868;-69
2024/04/25 02:10:19;;;;;;;;;5.17;4.50;;;;;9.70;51.77;100928.34;2112672;26;2748153;-69
2024/04/25 02:11:33;;;;;;;;;7.00;6.17;;;;;9.71;51.75;100932.69;2111412;26;2734581;-69
2024/04/25 02:12:47;;;;;;;;;5.17;5.00;;;;;9.71;51.21;100937.94;2134329;27;2744990;-69
2024/04/25 02:13:58;;;;;;;;;9.00;6.33;;;;;9.68;51.56;100937.13;2084020;27;2761695;-69
2024/04/25 02:15:11;;;;;;;;;5.17;4.00;;;;;9.69;51.53;100932.72;2148664;26;2754439;-68
2024/04/25 02:16:25;;;;;;;;;7.00;6.33;;;;;9.68;51.66;100934.50;2146887;26;2741876;-69
2024/04/25 02:17:40;;;;;;;;;6.17;5.17;;;;;9.67;51.68;100918.81;2134863;27;2754363;-69
2024/04/25 02:18:53;;;;;;;;;7.50;5.83;;;;;9.65;51.66;100925.84;2136641;26;2748178;-69
2024/04/25 02:25:13;;;;;;;;;6.00;5.00;;;;;9.64;51.88;100924.13;2110400;26;2750218;-69
2024/04/25 02:26:21;;;;;;;;;6.67;6.67;;;;;9.55;52.16;100919.97;2113192;27;2743984;-69
2024/04/25 02:27:34;;;;;;;;;8.50;6.67;;;;;9.55;52.51;100917.34;2135798;26;2748148;-68
2024/04/25 02:28:45;;;;;;;;;9.00;8.00;;;;;9.53;52.07;100919.16;2108593;26;2743944;-69
2024/04/25 02:29:59;;;;;;;;;4.33;3.00;;;;;9.50;52.40;100922.72;2137261;26;2739777;-69
2024/04/25 02:31:13;;;;;;;;;10.00;7.33;;;;;9.49;52.51;100920.13;2106708;27;2760684;-69
2024/04/25 02:32:24;;;;;;;;;11.33;9.33;;;;;9.43;52.05;100916.75;2108097;26;2757580;-68
2024/04/25 02:33:35;;;;;;;;;10.00;10.00;;;;;9.41;53.07;100915.06;2106722;26;3506425;-69
2024/04/25 02:34:49;;;;;;;;;7.33;7.33;;;;;9.37;52.43;100906.44;2134786;27;2746057;-69
2024/04/25 02:36:00;;;;;;;;;11.33;8.67;;;;;9.39;52.89;100911.63;2109221;27;2765177;-68
2024/04/25 02:37:11;;;;;;;;;9.67;8.00;;;;;9.39;52.46;100909.00;2109356;26;2748126;-68
2024/04/25 02:38:22;;;;;;;;;10.33;6.67;;;;;9.37;53.01;100911.66;2108891;26;2763748;-69
2024/04/25 02:39:36;;;;;;;;;6.50;6.50;;;;;9.34;52.48;100906.50;2135449;27;2749228;-69
2024/04/25 02:40:49;;;;;;;;;6.17;6.00;;;;;9.34;52.65;100909.13;2134241;27;2748558;-69
2024/04/25 02:42:00;;;;;;;;;19.67;13.00;;;;;9.32;52.81;100905.69;2105592;26;3543201;-68
2024/04/25 02:43:14;;;;;;;;;9.17;9.00;;;;;9.31;52.93;100912.69;2111141;26;2735619;-69
2024/04/25 02:44:26;;;;;;;;;14.75;10.25;;;;;9.25;52.26;100902.34;2120028;26;1846208;-68
2024/04/25 02:45:37;;;;;;;;;11.33;9.67;;;;;9.25;53.19;100904.09;2096294;27;3496093;-68
2024/04/25 02:46:49;;;;;;;;;13.33;12.00;;;;;9.23;53.42;100910.25;2106523;26;3508532;-69
2024/04/25 02:48:00;;;;;;;;;11.00;9.67;;;;;9.19;52.83;100905.09;2107190;26;3488082;-68
2024/04/25 02:49:11;;;;;;;;;12.00;9.00;;;;;9.12;53.46;100896.53;2097453;26;3479384;-68
2024/04/25 02:50:22;;;;;;;;;9.33;8.00;;;;;9.18;52.89;100908.66;2107145;27;2749160;-68
2024/04/25 02:51:36;;;;;;;;;11.67;8.83;;;;;9.13;53.70;100905.28;2136928;26;2764805;-68
2024/04/25 02:52:47;;;;;;;;;11.00;10.00;;;;;9.12;52.94;100901.78;2082160;26;2774529;-69
2024/04/25 02:54:00;;;;;;;;;7.17;7.17;;;;;9.09;53.05;100893.97;2136852;26;2740846;-69
2024/04/25 02:55:11;;;;;;;;;11.00;8.33;;;;;9.07;53.07;100893.16;2108316;26;3481451;-69
2024/04/25 02:56:22;;;;;;;;;10.00;10.00;;;;;9.04;53.06;100893.25;2107572;26;2777357;-69
2024/04/25 02:57:33;;;;;;;;;6.67;6.33;;;;;9.04;53.34;100893.25;2109073;26;2746319;-68
2024/04/25 02:58:47;;;;;;;;;5.17;3.33;;;;;9.02;53.18;100892.41;2136331;26;2741913;-68
2024/04/25 03:00:01;;;;;;;;;8.17;7.00;;;;;9.03;52.86;100895.00;2134369;26;2744978;-68
2024/04/25 03:01:14;;;;;;;;;8.33;8.33;;;;;8.97;53.31;100885.53;2134582;27;2739201;-68
2024/04/25 03:02:26;;;;;;;;;12.00;11.00;;;;;9.00;53.54;100892.47;2105225;26;3507459;-69
2024/04/25 03:03:37;;;;;;;;;9.33;8.67;;;;;8.99;53.90;100894.22;2107555;26;3471021;-69
2024/04/25 03:04:48;;;;;;;;;8.00;8.00;;;;;8.91;53.25;100879.56;2124038;27;1815808;-69
2024/04/25 03:06:02;;;;;;;;;10.50;8.67;;;;;8.96;53.48;100882.94;2111298;27;2751286;-69
2024/04/25 03:07:15;;;;;;;;;9.00;8.33;;;;;8.94;53.60;100887.38;2110607;27;2746057;-68
2024/04/25 03:08:26;;;;;;;;;9.67;9.67;;;;;8.94;53.75;100880.34;2106475;26;3482544;-68
2024/04/25 03:09:37;;;;;;;;;10.33;10.33;;;;;8.93;53.52;100883.88;2108215;26;2777327;-69
2024/04/25 03:10:48;;;;;;;;;10.33;9.67;;;;;8.89;53.69;100879.59;2107538;26;3496105;-68
2024/04/25 03:12:00;;;;;;;;;8.25;8.00;;;;;8.90;54.05;100886.56;2122923;26;1835789;-69
2024/04/25 03:13:14;;;;;;;;;11.00;9.50;;;;;8.86;53.84;100884.94;2135676;26;2742964;-69
2024/04/25 03:14:26;;;;;;;;;10.75;9.75;;;;;8.83;54.12;100877.13;2098694;27;1848261;-69
2024/04/25 03:15:40;;;;;;;;;9.33;9.33;;;;;8.84;53.78;100886.72;2135369;26;2737721;-69
2024/04/25 03:16:51;;;;;;;;;10.00;9.00;;;;;8.83;54.23;100885.00;2082587;26;3479641;-69
2024/04/25 03:18:05;;;;;;;;;9.00;7.83;;;;;8.81;54.39;100874.56;2137073;26;2747104;-69
2024/04/25 03:19:16;;;;;;;;;10.00;10.00;;;;;8.80;54.05;100874.56;2108355;26;2773203;-69
2024/04/25 03:20:29;;;;;;;;;6.00;6.00;;;;;8.77;53.77;100870.25;2134835;26;2750226;-68
2024/04/25 03:21:43;;;;;;;;;7.50;7.50;;;;;8.74;53.95;100865.94;2134896;26;2747105;-69
2024/04/25 03:22:57;;;;;;;;;9.33;8.67;;;;;8.71;54.11;100863.41;2137628;26;2735619;-68
2024/04/25 03:24:08;;;;;;;;;10.33;8.00;;;;;8.69;54.16;100864.34;2107427;26;2761729;-68
2024/04/25 03:25:21;;;;;;;;;8.50;7.17;;;;;8.72;53.95;100869.50;2136519;26;2750220;-68
2024/04/25 03:26:36;;;;;;;;;9.00;7.67;;;;;8.69;54.26;100867.84;2133792;27;2743252;-68
2024/04/25 03:27:49;;;;;;;;;13.33;11.00;;;;;8.68;54.40;100865.22;2106254;26;3522067;-68
2024/04/25 03:29:03;;;;;;;;;7.50;7.50;;;;;8.68;53.94;100870.47;2137973;27;2733939;-68
2024/04/25 03:30:17;;;;;;;;;11.67;10.00;;;;;8.67;54.37;100866.97;2135373;26;2756777;-68
2024/04/25 03:31:31;;;;;;;;;8.50;7.67;;;;;8.61;54.60;100854.03;2098959;26;2740835;-69
2024/04/25 03:32:42;;;;;;;;;9.67;8.33;;;;;8.64;54.38;100864.47;2095571;27;2746062;-68
2024/04/25 03:33:53;;;;;;;;;9.33;8.00;;;;;8.61;54.21;100862.78;2107645;26;2738145;-68
2024/04/25 03:35:07;;;;;;;;;8.83;8.33;;;;;8.52;54.24;100852.47;2135958;27;2746046;-68
2024/04/25 03:36:21;;;;;;;;;9.33;6.83;;;;;8.58;54.66;100867.16;2136899;26;2750212;-69
2024/04/25 03:37:34;;;;;;;;;7.17;7.00;;;;;8.59;54.38;100863.69;2112910;27;2728377;-69
2024/04/25 03:38:45;;;;;;;;;12.00;9.33;;;;;8.54;54.49;100856.75;2108711;27;2775243;-68
2024/04/25 03:39:59;;;;;;;;;9.67;8.00;;;;;8.52;54.28;100853.31;2135939;26;2740834;-68
2024/04/25 03:41:14;;;;;;;;;9.67;8.67;;;;;8.54;54.20;100859.38;2121719;26;1837718;-69
2024/04/25 03:42:25;;;;;;;;;9.33;8.00;;;;;8.51;54.75;100859.47;2084758;26;2744004;-69
2024/04/25 03:43:36;;;;;;;;;10.00;10.00;;;;;8.52;55.09;100860.31;2123505;26;1839792;-69
2024/04/25 03:44:47;;;;;;;;;13.00;11.00;;;;;8.51;54.77;100855.97;2080761;26;3516834;-68
2024/04/25 03:46:00;;;;;;;;;13.50;10.50;;;;;8.48;54.85;100859.53;2105629;26;2796053;-68
2024/04/25 03:47:11;;;;;;;;;12.25;12.00;;;;;8.42;54.97;100849.19;2123185;26;1841952;-69
2024/04/25 03:48:23;;;;;;;;;13.00;13.00;;;;;8.43;55.03;100853.53;2105050;26;3511675;-69
2024/04/25 03:49:33;;;;;;;;;12.00;8.33;;;;;8.43;54.53;100848.28;2106024;26;3478320;-69
2024/04/25 03:50:45;;;;;;;;;11.33;9.33;;;;;8.36;54.60;100839.69;2107472;26;3499201;-69
2024/04/25 03:51:56;;;;;;;;;13.67;12.00;;;;;8.37;55.12;100848.44;2106670;26;3511633;-68
2024/04/25 03:53:09;;;;;;;;;7.33;6.17;;;;;8.39;55.17;100849.25;2136875;26;2737709;-69
2024/04/25 03:54:20;;;;;;;;;8.33;6.33;;;;;8.35;55.18;100853.69;2106428;27;3467706;-68
2024/04/25 03:55:31;;;;;;;;;9.00;7.00;;;;;8.36;55.54;100854.56;2108726;26;2746047;-68
2024/04/25 03:56:42;;;;;;;;;13.67;7.67;;;;;8.32;55.43;100838.06;2107328;26;2760732;-68
2024/04/25 03:57:56;;;;;;;;;9.60;8.80;;;;;8.31;55.65;100847.66;2134443;27;2761687;-69
2024/04/25 03:59:09;;;;;;;;;9.17;6.83;;;;;8.31;54.96;100846.78;2112780;27;2743948;-68
2024/04/25 04:00:20;;;;;;;;;9.67;9.00;;;;;8.32;55.40;100852.00;2080753;26;2760047;-68
2024/04/25 04:01:34;;;;;;;;;6.83;6.00;;;;;8.30;55.34;100845.94;2135777;27;2746070;-69
2024/04/25 04:02:48;;;;;;;;;5.50;4.33;;;;;8.31;55.53;100849.41;2134148;26;2741876;-68
2024/04/25 04:04:01;;;;;;;;;9.00;8.50;;;;;8.27;55.48;100843.38;2135733;26;2736675;-69
2024/04/25 04:05:16;;;;;;;;;6.83;6.83;;;;;8.28;55.49;100842.50;2112268;26;2737725;-69
2024/04/25 04:06:27;;;;;;;;;8.00;7.00;;;;;8.28;55.74;100842.50;2109820;26;2754392;-69
2024/04/25 04:07:44;;;;;;;;;8.67;7.33;;;;;8.29;55.55;100845.97;2134996;26;2748102;-69
2024/04/25 04:08:57;;;;;;;;;10.50;8.00;;;;;8.28;55.67;100847.72;2135756;26;2752325;-69
2024/04/25 04:10:11;;;;;;;;;10.17;7.50;;;;;8.25;55.94;100839.09;2135071;27;2746045;-69
2024/04/25 04:11:25;;;;;;;;;10.50;8.67;;;;;8.26;55.41;100839.03;2110697;26;2751267;-68
2024/04/25 04:12:39;;;;;;;;;7.67;7.50;;;;;8.23;55.56;100841.72;2112328;26;2746039;-69
2024/04/25 04:13:53;;;;;;;;;9.17;7.33;;;;;8.22;55.80;100837.41;2112347;27;2754439;-68
2024/04/25 04:15:06;;;;;;;;;8.50;8.00;;;;;8.20;55.85;100836.53;2134849;26;2737737;-68
2024/04/25 04:16:17;;;;;;;;;11.67;9.00;;;;;8.18;56.00;100840.94;2107357;26;2766870;-68
2024/04/25 04:17:31;;;;;;;;;10.50;7.83;;;;;8.18;56.01;100844.44;2134789;27;2756460;-68
2024/04/25 04:18:43;;;;;;;;;13.00;10.50;;;;;8.15;56.19;100834.03;2119937;27;1837735;-69
2024/04/25 04:19:56;;;;;;;;;11.50;11.50;;;;;8.15;56.11;100836.63;2106278;27;2782516;-69
2024/04/25 04:21:07;;;;;;;;;13.00;10.00;;;;;8.14;56.22;100829.69;2108145;27;2780521;-68
2024/04/25 04:22:20;;;;;;;;;9.17;8.33;;;;;8.10;55.90;100823.66;2136777;26;2751235;-68
2024/04/25 04:23:34;;;;;;;;;9.67;9.67;;;;;8.12;56.47;100835.84;2109008;27;2745095;-69
2024/04/25 04:24:45;;;;;;;;;12.67;8.00;;;;;8.10;55.96;100838.50;2083722;27;2750235;-68
2024/04/25 04:25:59;;;;;;;;;10.00;9.00;;;;;8.09;56.32;100836.78;2135552;26;2743971;-68
2024/04/25 04:27:11;;;;;;;;;11.75;9.75;;;;;8.08;55.77;100835.91;2120979;26;1841928;-68
2024/04/25 04:28:22;;;;;;;;;12.00;10.00;;;;;8.08;56.41;100832.44;2106665;26;3507490;-69
2024/04/25 04:29:33;;;;;;;;;9.33;8.00;;;;;8.02;56.26;100825.59;2107566;26;3448106;-68
2024/04/25 04:30:44;;;;;;;;;9.67;6.67;;;;;7.96;56.22;100821.34;2107226;26;3464238;-69
2024/04/25 04:31:58;;;;;;;;;9.17;7.50;;;;;8.04;56.28;100834.25;2134395;26;2741952;-68
2024/04/25 04:33:09;;;;;;;;;14.33;10.33;;;;;8.03;56.57;100831.66;2099148;27;3507455;-68
2024/04/25 04:34:22;;;;;;;;;8.00;7.00;;;;;8.01;56.51;100831.69;2135375;26;2735620;-68
2024/04/25 04:35:33;;;;;;;;;11.00;9.00;;;;;8.03;56.84;100832.53;2085496;26;2766977;-68
2024/04/25 04:36:44;;;;;;;;;15.00;10.50;;;;;8.03;56.64;100836.91;2106318;27;2791862;-68
2024/04/25 04:37:55;;;;;;;;;8.00;8.00;;;;;8.01;56.88;100829.09;2109282;26;3459586;-68
2024/04/25 04:39:08;;;;;;;;;14.00;11.00;;;;;7.99;56.59;100820.41;2106674;26;2786678;-69
2024/04/25 04:40:19;;;;;;;;;17.00;10.00;;;;;8.01;56.28;100831.69;2107158;26;3538736;-69
2024/04/25 04:41:30;;;;;;;;;13.33;10.33;;;;;7.99;57.05;100826.50;2104220;27;3511656;-68
2024/04/25 04:42:41;;;;;;;;;12.67;10.67;;;;;7.99;56.97;100823.03;2105138;27;3506521;-69
2024/04/25 04:43:52;;;;;;;;;17.00;11.33;;;;;7.96;56.69;100820.47;2104705;26;3526271;-68
2024/04/25 04:45:04;;;;;;;;;8.67;8.33;;;;;7.96;57.02;100823.06;2107486;26;2740913;-68
2024/04/25 04:46:15;;;;;;;;;13.75;11.75;;;;;7.93;56.69;100816.16;2120990;26;1844046;-69
2024/04/25 04:47:26;;;;;;;;;12.67;9.33;;;;;7.95;57.01;100824.00;2103217;27;3504341;-68
2024/04/25 04:48:37;;;;;;;;;9.67;8.33;;;;;7.95;56.87;100824.81;2106053;27;3458515;-68
2024/04/25 04:49:51;;;;;;;;;10.17;9.00;;;;;7.93;56.72;100820.53;2134259;26;2751291;-68
2024/04/25 04:51:02;;;;;;;;;11.00;8.00;;;;;7.94;57.07;100828.34;2082157;26;3485617;-68
2024/04/25 04:52:18;;;;;;;;;7.67;7.33;;;;;7.93;57.09;100823.13;2134997;26;2742941;-68
2024/04/25 04:53:29;;;;;;;;;9.67;8.00;;;;;7.90;57.33;100828.47;2108421;26;3463731;-68
2024/04/25 04:54:40;;;;;;;;;9.33;9.33;;;;;7.85;57.29;100820.69;2107591;26;2753324;-68
2024/04/25 04:55:51;;;;;;;;;14.67;10.00;;;;;7.84;56.83;100822.44;2106914;26;3515806;-68
2024/04/25 04:57:02;;;;;;;;;11.00;9.67;;;;;7.84;57.08;100827.69;2105909;26;3480481;-68
2024/04/25 04:58:13;;;;;;;;;13.33;12.33;;;;;7.80;57.00;100838.25;2107050;26;3517894;-68
2024/04/25 04:59:25;;;;;;;;;10.50;8.75;;;;;7.80;57.11;100839.13;2122362;27;1838202;-68
2024/04/25 05:00:36;;;;;;;;;10.00;9.33;;;;;7.79;57.10;100839.13;2106695;27;2773444;-68
2024/04/25 05:01:50;;;;;;;;;8.50;8.50;;;;;7.78;57.53;100835.63;2135989;26;2738743;-68
2024/04/25 05:03:01;;;;;;;;;13.00;9.33;;;;;7.76;57.19;100830.44;2105108;26;3498110;-68
2024/04/25 05:04:12;;;;;;;;;12.00;10.00;;;;;7.77;57.08;100841.78;2104169;26;3511728;-68
2024/04/25 05:05:23;;;;;;;;;10.00;9.00;;;;;7.75;57.60;100839.19;2105989;27;3472091;-69
2024/04/25 05:06:34;;;;;;;;;13.67;10.67;;;;;7.73;57.38;100835.72;2106881;26;3521032;-69
2024/04/25 05:07:45;;;;;;;;;12.33;10.00;;;;;7.73;57.65;100834.91;2102804;27;3508543;-69
2024/04/25 05:08:59;;;;;;;;;3.17;1.83;;;;;7.73;57.37;100842.75;2135972;26;2735630;-69
2024/04/25 05:10:13;;;;;;;;;9.33;9.00;;;;;7.69;57.65;100833.22;2134732;26;2739792;-69
2024/04/25 05:11:24;;;;;;;;;13.00;9.50;;;;;7.65;57.36;100825.41;2080245;26;2774198;-69
2024/04/25 05:12:35;;;;;;;;;12.00;11.50;;;;;7.65;57.05;100828.03;2104299;26;2789838;-69
2024/04/25 05:13:46;;;;;;;;;11.33;11.33;;;;;7.67;57.63;100829.75;2081233;26;2785659;-69
2024/04/25 05:14:57;;;;;;;;;13.67;12.00;;;;;7.67;57.43;100835.88;2107459;26;3515804;-69
2024/04/25 05:16:10;;;;;;;;;15.00;12.00;;;;;7.68;57.53;100836.72;2106151;26;3519966;-68
2024/04/25 05:17:21;;;;;;;;;13.67;10.67;;;;;7.63;57.93;100829.81;2123253;26;1852296;-68
2024/04/25 05:18:35;;;;;;;;;4.33;4.33;;;;;7.69;57.75;100833.22;2113706;26;2748129;-69
2024/04/25 05:19:47;;;;;;;;;14.00;12.25;;;;;7.69;58.11;100833.22;2120365;26;1848285;-68
2024/04/25 05:20:58;;;;;;;;;9.67;9.67;;;;;7.68;57.79;100828.88;2105523;26;3486647;-69
2024/04/25 05:22:09;;;;;;;;;12.00;9.00;;;;;7.68;57.65;100826.28;2104836;26;2764773;-69
2024/04/25 05:23:21;;;;;;;;;10.50;9.25;;;;;7.68;57.73;100834.13;2119250;26;1835706;-69
2024/04/25 05:24:32;;;;;;;;;16.50;14.50;;;;;7.71;57.65;100832.28;2119844;27;1858605;-68
2024/04/25 05:25:44;;;;;;;;;19.00;14.00;;;;;7.72;58.10;100833.16;2105287;26;2816956;-69
2024/04/25 05:26:55;;;;;;;;;14.00;13.00;;;;;7.72;58.17;100827.94;2107218;27;2789827;-68
2024/04/25 05:28:06;;;;;;;;;17.50;16.00;;;;;7.65;58.07;100816.72;2105528;26;2823111;-69
2024/04/25 05:29:17;;;;;;;;;12.50;12.50;;;;;7.69;58.56;100823.59;2078970;27;2791819;-68
2024/04/25 05:30:29;;;;;;;;;17.00;14.50;;;;;7.75;58.59;100820.03;2082953;26;2804390;-69
2024/04/25 05:31:40;;;;;;;;;15.50;14.00;;;;;7.73;58.55;100817.41;2104596;27;2790913;-69
2024/04/25 05:32:52;;;;;;;;;15.25;13.00;;;;;7.72;58.25;100818.31;2095569;27;1844023;-69
2024/04/25 05:34:03;;;;;;;;;13.67;12.67;;;;;7.75;58.38;100820.84;2122091;26;1842894;-69
2024/04/25 05:35:15;;;;;;;;;17.00;15.50;;;;;7.75;58.17;100822.63;2082519;26;2813804;-69
2024/04/25 05:36:26;;;;;;;;;16.00;15.00;;;;;7.76;58.74;100824.34;2105428;27;2799208;-69